APG1192 EDDN-EDDH
Flight info
| Callsign | APG1192 |
|---|---|
| Flight time | 0h 57m |
| Altitude | 34000 |
| Route | SULUS1G/28 SULUS L604 MASEK/N0448F330 DCT ELNAT/N0450F340 P605 NOLGO NOLG3P EDDH/23 |
| Aircraft | A20N/M-V/N |
Departure
| Time | 2026-04-19 23:48 |
|---|---|
| Airport | Nuremberg Airport (EDDN) |
Arrival
| Time | 2026-04-20 00:46 |
|---|---|
| Airport | Hamburg Helmut Schmidt Airport (EDDH) |
| Time | Latitude | Longitude | Altitude | Speed | Heading |
|---|---|---|---|---|---|
| 2026-04-19 23:09 | 49.49478 | 11.08167 | 1029 ft | 0 kts | 188° |
| 2026-04-19 23:34 | 49.49491 | 11.08170 | 1029 ft | 2 kts | 188° |
| 2026-04-19 23:35 | 49.49506 | 11.08174 | 1029 ft | 2 kts | 188° |
| 2026-04-19 23:35 | 49.49515 | 11.08176 | 1029 ft | 1 kts | 189° |
| 2026-04-19 23:35 | 49.49530 | 11.08174 | 1029 ft | 2 kts | 156° |
| 2026-04-19 23:35 | 49.49543 | 11.08161 | 1029 ft | 2 kts | 129° |
| 2026-04-19 23:36 | 49.49550 | 11.08142 | 1029 ft | 1 kts | 103° |
| 2026-04-19 23:36 | 49.49551 | 11.08132 | 1029 ft | 1 kts | 96° |
| 2026-04-19 23:36 | 49.49551 | 11.08129 | 1029 ft | 0 kts | 98° |
| 2026-04-19 23:41 | 49.49550 | 11.08136 | 1029 ft | 1 kts | 98° |
| 2026-04-19 23:41 | 49.49548 | 11.08161 | 1029 ft | 3 kts | 98° |
| 2026-04-19 23:41 | 49.49544 | 11.08202 | 1029 ft | 4 kts | 98° |
| 2026-04-19 23:42 | 49.49538 | 11.08260 | 1029 ft | 6 kts | 98° |
| 2026-04-19 23:42 | 49.49546 | 11.08326 | 1030 ft | 6 kts | 53° |
| 2026-04-19 23:42 | 49.49580 | 11.08354 | 1031 ft | 5 kts | 17° |
| 2026-04-19 23:42 | 49.49607 | 11.08380 | 1032 ft | 4 kts | 51° |
| 2026-04-19 23:43 | 49.49616 | 11.08413 | 1033 ft | 2 kts | 83° |
| 2026-04-19 23:43 | 49.49615 | 11.08439 | 1034 ft | 2 kts | 96° |
| 2026-04-19 23:43 | 49.49613 | 11.08464 | 1034 ft | 3 kts | 97° |
| 2026-04-19 23:43 | 49.49609 | 11.08513 | 1035 ft | 5 kts | 97° |
| 2026-04-19 23:44 | 49.49603 | 11.08583 | 1036 ft | 7 kts | 97° |
| 2026-04-19 23:44 | 49.49594 | 11.08674 | 1038 ft | 9 kts | 98° |
| 2026-04-19 23:44 | 49.49583 | 11.08772 | 1041 ft | 9 kts | 99° |
| 2026-04-19 23:44 | 49.49572 | 11.08880 | 1044 ft | 11 kts | 98° |
| 2026-04-19 23:45 | 49.49560 | 11.09004 | 1046 ft | 12 kts | 98° |
| 2026-04-19 23:45 | 49.49548 | 11.09139 | 1046 ft | 12 kts | 97° |
| 2026-04-19 23:45 | 49.49535 | 11.09268 | 1049 ft | 11 kts | 97° |
| 2026-04-19 23:45 | 49.49549 | 11.09391 | 1049 ft | 12 kts | 60° |
| 2026-04-19 23:46 | 49.49601 | 11.09500 | 1049 ft | 13 kts | 53° |
| 2026-04-19 23:46 | 49.49662 | 11.09569 | 1051 ft | 10 kts | 358° |
| 2026-04-19 23:46 | 49.49704 | 11.09486 | 1050 ft | 12 kts | 277° |
| 2026-04-19 23:46 | 49.49706 | 11.09455 | 1050 ft | 0 kts | 276° |
| 2026-04-19 23:47 | 49.49709 | 11.09414 | 1050 ft | 21 kts | 276° |
| 2026-04-19 23:47 | 49.49777 | 11.08749 | 1044 ft | 102 kts | 279° |
| 2026-04-19 23:48 | 49.49920 | 11.07299 | 1029 ft | 166 kts | 280° |
| 2026-04-19 23:48 | 49.50095 | 11.05504 | 1685 ft | 171 kts | 280° |
| 2026-04-19 23:48 | 49.50276 | 11.03744 | 2583 ft | 166 kts | 282° |
| 2026-04-19 23:48 | 49.50433 | 11.02043 | 3430 ft | 165 kts | 282° |
| 2026-04-19 23:49 | 49.50621 | 11.00219 | 3995 ft | 181 kts | 283° |
| 2026-04-19 23:49 | 49.50827 | 10.98215 | 4485 ft | 204 kts | 281° |
| 2026-04-19 23:49 | 49.51057 | 10.95999 | 5100 ft | 219 kts | 288° |
| 2026-04-19 23:49 | 49.51834 | 10.93923 | 5647 ft | 234 kts | 316° |
| 2026-04-19 23:50 | 49.53251 | 10.92635 | 6258 ft | 251 kts | 342° |
| 2026-04-19 23:50 | 49.55009 | 10.92403 | 7040 ft | 262 kts | 358° |
| 2026-04-19 23:50 | 49.56848 | 10.92478 | 7912 ft | 268 kts | 358° |
| 2026-04-19 23:50 | 49.58711 | 10.92554 | 8792 ft | 271 kts | 358° |
| 2026-04-19 23:51 | 49.60581 | 10.92611 | 9636 ft | 276 kts | 358° |
| 2026-04-19 23:51 | 49.62505 | 10.92694 | 10490 ft | 280 kts | 358° |
| 2026-04-19 23:51 | 49.64501 | 10.92753 | 10925 ft | 298 kts | 357° |
| 2026-04-19 23:51 | 49.66640 | 10.92780 | 11355 ft | 316 kts | 358° |
| 2026-04-19 23:52 | 49.68891 | 10.92789 | 11871 ft | 328 kts | 353° |
| 2026-04-19 23:52 | 49.71154 | 10.92253 | 12632 ft | 331 kts | 343° |
| 2026-04-19 23:52 | 49.73314 | 10.91269 | 13477 ft | 331 kts | 338° |
| 2026-04-19 23:52 | 49.75508 | 10.90096 | 14304 ft | 333 kts | 337° |
| 2026-04-19 23:53 | 49.77681 | 10.88916 | 15086 ft | 336 kts | 337° |
| 2026-04-19 23:53 | 49.79882 | 10.87727 | 15792 ft | 341 kts | 337° |
| 2026-04-19 23:53 | 49.82132 | 10.86512 | 16387 ft | 348 kts | 337° |
| 2026-04-19 23:53 | 49.84429 | 10.85272 | 17049 ft | 353 kts | 338° |
| 2026-04-19 23:54 | 49.86766 | 10.84016 | 17715 ft | 358 kts | 338° |
| 2026-04-19 23:54 | 49.89120 | 10.82751 | 18380 ft | 361 kts | 338° |
| 2026-04-19 23:54 | 49.91488 | 10.81479 | 19025 ft | 365 kts | 338° |
| 2026-04-19 23:54 | 49.93891 | 10.80189 | 19651 ft | 368 kts | 337° |
| 2026-04-19 23:55 | 49.96303 | 10.78890 | 20278 ft | 372 kts | 337° |
| 2026-04-19 23:55 | 49.98765 | 10.77563 | 20916 ft | 374 kts | 337° |
| 2026-04-19 23:55 | 50.01234 | 10.76230 | 21523 ft | 378 kts | 337° |
| 2026-04-19 23:55 | 50.03704 | 10.74897 | 22127 ft | 381 kts | 336° |
| 2026-04-19 23:56 | 50.06110 | 10.73311 | 22731 ft | 379 kts | 328° |
| 2026-04-19 23:56 | 50.08342 | 10.71072 | 23311 ft | 378 kts | 319° |
| 2026-04-19 23:56 | 50.10267 | 10.68358 | 23860 ft | 378 kts | 312° |
| 2026-04-19 23:56 | 50.12101 | 10.65407 | 24438 ft | 381 kts | 311° |
| 2026-04-19 23:57 | 50.13945 | 10.62380 | 24968 ft | 384 kts | 311° |
| 2026-04-19 23:57 | 50.15786 | 10.59349 | 25483 ft | 386 kts | 311° |
| 2026-04-19 23:57 | 50.17622 | 10.56330 | 25954 ft | 389 kts | 311° |
| 2026-04-19 23:57 | 50.19487 | 10.53254 | 26429 ft | 392 kts | 311° |
| 2026-04-19 23:58 | 50.21356 | 10.50173 | 26878 ft | 395 kts | 311° |
| 2026-04-19 23:58 | 50.23272 | 10.47030 | 27328 ft | 398 kts | 312° |
| 2026-04-19 23:58 | 50.25192 | 10.43942 | 27756 ft | 400 kts | 312° |
| 2026-04-19 23:58 | 50.27136 | 10.40831 | 28156 ft | 403 kts | 312° |
| 2026-04-19 23:59 | 50.29075 | 10.37721 | 28548 ft | 405 kts | 312° |
| 2026-04-19 23:59 | 50.31031 | 10.34573 | 29015 ft | 405 kts | 311° |
| 2026-04-19 23:59 | 50.32986 | 10.31408 | 29502 ft | 403 kts | 311° |
| 2026-04-19 23:59 | 50.34888 | 10.28254 | 29921 ft | 402 kts | 309° |
| 2026-04-20 00:00 | 50.36719 | 10.24958 | 30282 ft | 402 kts | 309° |
| 2026-04-20 00:00 | 50.38566 | 10.21725 | 30625 ft | 402 kts | 311° |
| 2026-04-20 00:00 | 50.40486 | 10.18557 | 30965 ft | 402 kts | 311° |
| 2026-04-20 00:00 | 50.42418 | 10.15411 | 31270 ft | 401 kts | 312° |
| 2026-04-20 00:01 | 50.44346 | 10.12260 | 31537 ft | 401 kts | 311° |
| 2026-04-20 00:01 | 50.46237 | 10.09052 | 31796 ft | 401 kts | 310° |
| 2026-04-20 00:01 | 50.49985 | 10.02617 | 32303 ft | 400 kts | 310° |
| 2026-04-20 00:02 | 50.51858 | 9.99409 | 32520 ft | 401 kts | 310° |
| 2026-04-20 00:02 | 50.53722 | 9.96201 | 32730 ft | 402 kts | 309° |
| 2026-04-20 00:02 | 50.55534 | 9.92873 | 32932 ft | 402 kts | 308° |
| 2026-04-20 00:02 | 50.57344 | 9.89461 | 33120 ft | 404 kts | 307° |
| 2026-04-20 00:03 | 50.59132 | 9.86066 | 33333 ft | 405 kts | 307° |
| 2026-04-20 00:03 | 50.60911 | 9.82688 | 33558 ft | 406 kts | 307° |
| 2026-04-20 00:03 | 50.62699 | 9.79290 | 33765 ft | 407 kts | 307° |
| 2026-04-20 00:03 | 50.64519 | 9.75825 | 33996 ft | 408 kts | 308° |
| 2026-04-20 00:04 | 50.66326 | 9.72386 | 34127 ft | 410 kts | 308° |
| 2026-04-20 00:04 | 50.68331 | 9.69247 | 34118 ft | 413 kts | 320° |
| 2026-04-20 00:04 | 50.70728 | 9.66689 | 34136 ft | 414 kts | 326° |
| 2026-04-20 00:05 | 50.76025 | 9.63017 | 34138 ft | 421 kts | 341° |
| 2026-04-20 00:05 | 50.81808 | 9.61708 | 34137 ft | 430 kts | 356° |
| 2026-04-20 00:06 | 50.87792 | 9.62542 | 34144 ft | 434 kts | 3° |
| 2026-04-20 00:06 | 50.93753 | 9.63761 | 34147 ft | 434 kts | 3° |
| 2026-04-20 00:07 | 50.99739 | 9.64961 | 34144 ft | 433 kts | 3° |
| 2026-04-20 00:07 | 51.05684 | 9.66134 | 34141 ft | 434 kts | 3° |
| 2026-04-20 00:08 | 51.11680 | 9.67318 | 34134 ft | 433 kts | 3° |
| 2026-04-20 00:08 | 51.17630 | 9.68492 | 34130 ft | 433 kts | 3° |
| 2026-04-20 00:09 | 51.23598 | 9.69597 | 34116 ft | 432 kts | 2° |
| 2026-04-20 00:09 | 51.29551 | 9.70537 | 34111 ft | 432 kts | 2° |
| 2026-04-20 00:10 | 51.35529 | 9.71492 | 34114 ft | 432 kts | 2° |
| 2026-04-20 00:10 | 51.41469 | 9.72455 | 34118 ft | 433 kts | 2° |
| 2026-04-20 00:11 | 51.47480 | 9.73439 | 34116 ft | 433 kts | 3° |
| 2026-04-20 00:11 | 51.53445 | 9.74551 | 34116 ft | 433 kts | 4° |
| 2026-04-20 00:12 | 51.59381 | 9.75693 | 34120 ft | 432 kts | 4° |
| 2026-04-20 00:12 | 51.65358 | 9.76824 | 34117 ft | 433 kts | 4° |
| 2026-04-20 00:13 | 51.71315 | 9.77953 | 34123 ft | 434 kts | 4° |
| 2026-04-20 00:13 | 51.77318 | 9.79095 | 34123 ft | 434 kts | 4° |
| 2026-04-20 00:14 | 51.83286 | 9.80237 | 34114 ft | 434 kts | 4° |
| 2026-04-20 00:14 | 51.89278 | 9.81389 | 34113 ft | 434 kts | 4° |
| 2026-04-20 00:15 | 51.95288 | 9.82549 | 34106 ft | 435 kts | 5° |
| 2026-04-20 00:15 | 52.01259 | 9.83709 | 34105 ft | 435 kts | 5° |
| 2026-04-20 00:16 | 52.07241 | 9.84872 | 34103 ft | 435 kts | 5° |
| 2026-04-20 00:16 | 52.13238 | 9.86044 | 34100 ft | 435 kts | 5° |
| 2026-04-20 00:17 | 52.19246 | 9.87218 | 34099 ft | 434 kts | 5° |
| 2026-04-20 00:17 | 52.22220 | 9.87808 | 33858 ft | 438 kts | 6° |
| 2026-04-20 00:17 | 52.25225 | 9.88607 | 33333 ft | 440 kts | 9° |
| 2026-04-20 00:17 | 52.28210 | 9.89696 | 32819 ft | 444 kts | 13° |
| 2026-04-20 00:18 | 52.31178 | 9.90957 | 32273 ft | 446 kts | 15° |
| 2026-04-20 00:18 | 52.34167 | 9.92276 | 31808 ft | 445 kts | 16° |
| 2026-04-20 00:18 | 52.37127 | 9.93593 | 31391 ft | 442 kts | 16° |
| 2026-04-20 00:18 | 52.40064 | 9.94901 | 30864 ft | 439 kts | 17° |
| 2026-04-20 00:19 | 52.42984 | 9.96207 | 30203 ft | 438 kts | 17° |
| 2026-04-20 00:19 | 52.45896 | 9.97507 | 29463 ft | 437 kts | 16° |
| 2026-04-20 00:19 | 52.48820 | 9.98809 | 28627 ft | 438 kts | 16° |
| 2026-04-20 00:19 | 52.51752 | 10.00107 | 27734 ft | 439 kts | 17° |
| 2026-04-20 00:20 | 52.54677 | 10.01407 | 26780 ft | 440 kts | 17° |
| 2026-04-20 00:20 | 52.57627 | 10.02721 | 26080 ft | 436 kts | 17° |
| 2026-04-20 00:20 | 52.60511 | 10.04004 | 25507 ft | 429 kts | 17° |
| 2026-04-20 00:20 | 52.63387 | 10.05285 | 24938 ft | 423 kts | 17° |
| 2026-04-20 00:21 | 52.66177 | 10.06535 | 24410 ft | 417 kts | 17° |
| 2026-04-20 00:21 | 52.68957 | 10.07782 | 23872 ft | 411 kts | 18° |
| 2026-04-20 00:21 | 52.71679 | 10.09009 | 23355 ft | 405 kts | 17° |
| 2026-04-20 00:21 | 52.74369 | 10.10213 | 22880 ft | 400 kts | 16° |
| 2026-04-20 00:22 | 52.77083 | 10.11152 | 22395 ft | 396 kts | 11° |
| 2026-04-20 00:22 | 52.79777 | 10.11701 | 21914 ft | 392 kts | 7° |
| 2026-04-20 00:22 | 52.82492 | 10.11911 | 21431 ft | 388 kts | 4° |
| 2026-04-20 00:22 | 52.85157 | 10.12002 | 20945 ft | 385 kts | 4° |
| 2026-04-20 00:23 | 52.87831 | 10.12075 | 20464 ft | 381 kts | 3° |
| 2026-04-20 00:23 | 52.90453 | 10.12151 | 19985 ft | 378 kts | 4° |
| 2026-04-20 00:23 | 52.93059 | 10.12230 | 19508 ft | 375 kts | 3° |
| 2026-04-20 00:23 | 52.95658 | 10.12313 | 19037 ft | 372 kts | 3° |
| 2026-04-20 00:24 | 52.98210 | 10.12395 | 18574 ft | 369 kts | 3° |
| 2026-04-20 00:24 | 53.00733 | 10.12478 | 18112 ft | 366 kts | 3° |
| 2026-04-20 00:24 | 53.03280 | 10.12565 | 17648 ft | 364 kts | 2° |
| 2026-04-20 00:24 | 53.05809 | 10.12649 | 17183 ft | 361 kts | 2° |
| 2026-04-20 00:25 | 53.08266 | 10.12730 | 16739 ft | 358 kts | 2° |
| 2026-04-20 00:25 | 53.10755 | 10.12814 | 16292 ft | 355 kts | 2° |
| 2026-04-20 00:25 | 53.13192 | 10.12894 | 15850 ft | 352 kts | 1° |
| 2026-04-20 00:25 | 53.15625 | 10.12976 | 15400 ft | 349 kts | 1° |
| 2026-04-20 00:26 | 53.18062 | 10.13058 | 14951 ft | 346 kts | 1° |
| 2026-04-20 00:26 | 53.20468 | 10.13139 | 14491 ft | 343 kts | 1° |
| 2026-04-20 00:26 | 53.22821 | 10.13218 | 14048 ft | 340 kts | 1° |
| 2026-04-20 00:26 | 53.25176 | 10.13297 | 13596 ft | 337 kts | 1° |
| 2026-04-20 00:27 | 53.27500 | 10.13375 | 13147 ft | 335 kts | 1° |
| 2026-04-20 00:27 | 53.29814 | 10.13450 | 12697 ft | 332 kts | 1° |
| 2026-04-20 00:27 | 53.32120 | 10.13523 | 12251 ft | 329 kts | 1° |
| 2026-04-20 00:27 | 53.34374 | 10.13596 | 11807 ft | 327 kts | 1° |
| 2026-04-20 00:28 | 53.36629 | 10.13669 | 11359 ft | 324 kts | 1° |
| 2026-04-20 00:28 | 53.38862 | 10.13728 | 10961 ft | 320 kts | 0° |
| 2026-04-20 00:28 | 53.41087 | 10.13589 | 10973 ft | 321 kts | 357° |
| 2026-04-20 00:28 | 53.43316 | 10.13327 | 10998 ft | 322 kts | 356° |
| 2026-04-20 00:29 | 53.45545 | 10.13046 | 11011 ft | 323 kts | 356° |
| 2026-04-20 00:29 | 53.47796 | 10.12757 | 10990 ft | 323 kts | 356° |
| 2026-04-20 00:29 | 53.49995 | 10.12474 | 11059 ft | 315 kts | 356° |
| 2026-04-20 00:29 | 53.52120 | 10.12201 | 11076 ft | 297 kts | 356° |
| 2026-04-20 00:30 | 53.54121 | 10.11943 | 11089 ft | 280 kts | 357° |
| 2026-04-20 00:30 | 53.56009 | 10.11701 | 11092 ft | 263 kts | 357° |
| 2026-04-20 00:30 | 53.57782 | 10.11697 | 11075 ft | 246 kts | 14° |
| 2026-04-20 00:30 | 53.59208 | 10.12982 | 11088 ft | 236 kts | 44° |
| 2026-04-20 00:31 | 53.60281 | 10.15098 | 11113 ft | 238 kts | 50° |
| 2026-04-20 00:31 | 53.61324 | 10.17261 | 11120 ft | 238 kts | 49° |
| 2026-04-20 00:31 | 53.62364 | 10.19394 | 11105 ft | 238 kts | 49° |
| 2026-04-20 00:31 | 53.63424 | 10.21548 | 11106 ft | 237 kts | 49° |
| 2026-04-20 00:32 | 53.64476 | 10.23674 | 11128 ft | 238 kts | 49° |
| 2026-04-20 00:32 | 53.65532 | 10.25808 | 11115 ft | 237 kts | 49° |
| 2026-04-20 00:32 | 53.66582 | 10.27930 | 11107 ft | 237 kts | 49° |
| 2026-04-20 00:32 | 53.67650 | 10.30083 | 11089 ft | 237 kts | 49° |
| 2026-04-20 00:33 | 53.68698 | 10.32202 | 10831 ft | 238 kts | 49° |
| 2026-04-20 00:33 | 53.69746 | 10.34332 | 10544 ft | 235 kts | 49° |
| 2026-04-20 00:33 | 53.70777 | 10.36416 | 10274 ft | 231 kts | 48° |
| 2026-04-20 00:33 | 53.71802 | 10.38492 | 10024 ft | 229 kts | 49° |
| 2026-04-20 00:34 | 53.72811 | 10.40535 | 9758 ft | 226 kts | 49° |
| 2026-04-20 00:34 | 53.73801 | 10.42551 | 9509 ft | 224 kts | 49° |
| 2026-04-20 00:34 | 53.74795 | 10.44565 | 9250 ft | 221 kts | 49° |
| 2026-04-20 00:34 | 53.75769 | 10.46544 | 8991 ft | 219 kts | 49° |
| 2026-04-20 00:35 | 53.76736 | 10.48516 | 8748 ft | 217 kts | 48° |
| 2026-04-20 00:35 | 53.77694 | 10.50469 | 8502 ft | 215 kts | 48° |
| 2026-04-20 00:35 | 53.78635 | 10.52382 | 8260 ft | 213 kts | 49° |
| 2026-04-20 00:35 | 53.79574 | 10.54292 | 8010 ft | 210 kts | 49° |
| 2026-04-20 00:36 | 53.80506 | 10.56203 | 7752 ft | 208 kts | 48° |
| 2026-04-20 00:36 | 53.81418 | 10.58071 | 7522 ft | 204 kts | 48° |
| 2026-04-20 00:36 | 53.82325 | 10.59869 | 7287 ft | 202 kts | 41° |
| 2026-04-20 00:36 | 53.83545 | 10.61009 | 7018 ft | 200 kts | 14° |
| 2026-04-20 00:37 | 53.84946 | 10.61013 | 6745 ft | 206 kts | 349° |
| 2026-04-20 00:37 | 53.86225 | 10.59919 | 6479 ft | 214 kts | 328° |
| 2026-04-20 00:37 | 53.87370 | 10.58327 | 6240 ft | 213 kts | 327° |
| 2026-04-20 00:37 | 53.88496 | 10.56679 | 5989 ft | 214 kts | 318° |
| 2026-04-20 00:38 | 53.89185 | 10.54420 | 5719 ft | 228 kts | 284° |
| 2026-04-20 00:38 | 53.89043 | 10.51703 | 5468 ft | 238 kts | 250° |
| 2026-04-20 00:38 | 53.88119 | 10.49386 | 5253 ft | 240 kts | 232° |
| 2026-04-20 00:38 | 53.87020 | 10.47266 | 5021 ft | 239 kts | 230° |
| 2026-04-20 00:39 | 53.85921 | 10.45135 | 4787 ft | 238 kts | 231° |
| 2026-04-20 00:39 | 53.84840 | 10.43001 | 4552 ft | 237 kts | 232° |
| 2026-04-20 00:39 | 53.83799 | 10.40893 | 4323 ft | 236 kts | 233° |
| 2026-04-20 00:39 | 53.82764 | 10.38725 | 4095 ft | 235 kts | 234° |
| 2026-04-20 00:40 | 53.81750 | 10.36601 | 3870 ft | 234 kts | 233° |
| 2026-04-20 00:40 | 53.80718 | 10.34474 | 3637 ft | 233 kts | 233° |
| 2026-04-20 00:40 | 53.79684 | 10.32374 | 3409 ft | 232 kts | 233° |
| 2026-04-20 00:40 | 53.78648 | 10.30286 | 3179 ft | 231 kts | 233° |
| 2026-04-20 00:41 | 53.77601 | 10.28184 | 3003 ft | 241 kts | 233° |
| 2026-04-20 00:41 | 53.76516 | 10.26009 | 2974 ft | 241 kts | 233° |
| 2026-04-20 00:41 | 53.75469 | 10.23918 | 2949 ft | 227 kts | 233° |
| 2026-04-20 00:41 | 53.74482 | 10.21944 | 2948 ft | 217 kts | 234° |
| 2026-04-20 00:42 | 53.73506 | 10.19980 | 2986 ft | 212 kts | 234° |
| 2026-04-20 00:42 | 53.72598 | 10.18153 | 2871 ft | 203 kts | 234° |
| 2026-04-20 00:42 | 53.71707 | 10.16353 | 2588 ft | 199 kts | 234° |
| 2026-04-20 00:42 | 53.70841 | 10.14610 | 2292 ft | 188 kts | 234° |
| 2026-04-20 00:43 | 53.70025 | 10.12962 | 2046 ft | 177 kts | 233° |
| 2026-04-20 00:43 | 53.69255 | 10.11407 | 1790 ft | 169 kts | 234° |
| 2026-04-20 00:43 | 53.68515 | 10.09911 | 1585 ft | 164 kts | 234° |
| 2026-04-20 00:43 | 53.67810 | 10.08490 | 1349 ft | 152 kts | 234° |
| 2026-04-20 00:44 | 53.67139 | 10.07131 | 1157 ft | 148 kts | 234° |
| 2026-04-20 00:44 | 53.66481 | 10.05796 | 959 ft | 147 kts | 233° |
| 2026-04-20 00:44 | 53.65828 | 10.04476 | 757 ft | 144 kts | 233° |
| 2026-04-20 00:44 | 53.65192 | 10.03182 | 569 ft | 142 kts | 233° |
| 2026-04-20 00:45 | 53.64567 | 10.01928 | 362 ft | 139 kts | 233° |
| 2026-04-20 00:45 | 53.63943 | 10.00665 | 174 ft | 137 kts | 233° |
| 2026-04-20 00:45 | 53.63340 | 9.99437 | 32 ft | 131 kts | 232° |
| 2026-04-20 00:45 | 53.62865 | 9.98477 | 38 ft | 81 kts | 230° |
| 2026-04-20 00:46 | 53.62613 | 9.97966 | 30 ft | 33 kts | 230° |
| 2026-04-20 00:46 | 53.62454 | 9.97823 | 29 ft | 13 kts | 148° |
| 2026-04-20 00:46 | 53.62444 | 9.97836 | 29 ft | 0 kts | 136° |
| 2026-04-20 00:46 | 53.62443 | 9.97836 | 29 ft | 0 kts | 136° |
| 2026-04-20 00:47 | 53.62437 | 9.97851 | 29 ft | 2 kts | 122° |
| 2026-04-20 00:47 | 53.62430 | 9.97901 | 30 ft | 6 kts | 90° |
| 2026-04-20 00:47 | 53.62438 | 9.97992 | 32 ft | 8 kts | 78° |
| 2026-04-20 00:47 | 53.62449 | 9.98081 | 35 ft | 7 kts | 78° |
| 2026-04-20 00:48 | 53.62460 | 9.98176 | 36 ft | 10 kts | 80° |
| 2026-04-20 00:48 | 53.62466 | 9.98233 | 36 ft | 0 kts | 80° |
| 2026-04-20 00:49 | 53.62466 | 9.98235 | 36 ft | 1 kts | 80° |
| 2026-04-20 00:49 | 53.62472 | 9.98287 | 37 ft | 7 kts | 80° |
| 2026-04-20 00:49 | 53.62487 | 9.98423 | 38 ft | 16 kts | 79° |
| 2026-04-20 00:49 | 53.62513 | 9.98660 | 41 ft | 23 kts | 78° |
| 2026-04-20 00:50 | 53.62547 | 9.98942 | 43 ft | 26 kts | 77° |
| 2026-04-20 00:50 | 53.62582 | 9.99262 | 43 ft | 29 kts | 79° |
| 2026-04-20 00:50 | 53.62622 | 9.99618 | 39 ft | 30 kts | 79° |
| 2026-04-20 00:50 | 53.62661 | 9.99821 | 38 ft | 6 kts | 51° |
| 2026-04-20 00:51 | 53.62699 | 9.99864 | 37 ft | 7 kts | 28° |
| 2026-04-20 00:51 | 53.62764 | 9.99923 | 36 ft | 13 kts | 30° |
| 2026-04-20 00:51 | 53.62841 | 10.00001 | 34 ft | 8 kts | 37° |
| 2026-04-20 00:51 | 53.62897 | 10.00079 | 36 ft | 12 kts | 34° |
| 2026-04-20 00:52 | 53.62975 | 10.00160 | 38 ft | 13 kts | 32° |
| 2026-04-20 00:52 | 53.63061 | 10.00248 | 38 ft | 15 kts | 21° |
| 2026-04-20 00:52 | 53.63168 | 10.00250 | 38 ft | 15 kts | 355° |
| 2026-04-20 00:52 | 53.63269 | 10.00239 | 39 ft | 11 kts | 357° |
| 2026-04-20 00:53 | 53.63324 | 10.00259 | 40 ft | 7 kts | 50° |
| 2026-04-20 00:53 | 53.63332 | 10.00325 | 41 ft | 5 kts | 91° |
| 2026-04-20 00:53 | 53.63333 | 10.00359 | 42 ft | 0 kts | 86° |
| 2026-04-20 00:54 | 53.63333 | 10.00356 | 42 ft | 0 kts | 86° |